Los Angeles, California
Traffic Map
Current Weather Conditions
Los Angeles, California
Clear
Clear
16°
Feels Like: 16°
Wind Chill: 16° Ceiling: Unl
Heat Index: 16° Visibility: 10mi
Dew Point: Wind: 6mph
Humidity: 54% Direction: 270° (W)
Pressure: 30.05in Gusts: 0mph
Raw Report DataKCQT 252147Z AUTO 27005KT 10SM CLR 16/07 A3005 RMK AO2 SLP174 T01610067
Traffic Incident Summary
Active as of:
Severity:
Category:
InformationThere was an issue retrieving the traffic information for this location. Please try a different location or try again shortly.
Advertisements
Track Severe Weather on mobile